createdAt,value
2022-08-28T00:00:57.699Z,26.60
2022-08-28T00:03:26.866Z,26.60
2022-08-28T00:05:56.035Z,26.70
2022-08-28T00:08:25.202Z,26.70
2022-08-28T00:10:54.755Z,26.80
2022-08-28T00:13:26.545Z,26.80
2022-08-28T00:16:02.373Z,26.90
2022-08-28T00:18:33.240Z,27.00
2022-08-28T00:21:03.187Z,27.00
2022-08-28T00:23:42.513Z,27.00
2022-08-28T00:26:33.403Z,27.20
2022-08-28T00:29:02.805Z,27.20
2022-08-28T00:31:32.169Z,27.30
2022-08-28T00:34:04.354Z,27.30
2022-08-28T00:36:33.831Z,27.40
2022-08-28T00:39:03.425Z,27.50
2022-08-28T00:41:33.852Z,27.50
2022-08-28T00:44:16.567Z,27.60
2022-08-28T00:46:48.890Z,27.60
2022-08-28T00:49:21.310Z,27.70
2022-08-28T00:52:06.978Z,27.80
2022-08-28T00:54:41.666Z,27.90
2022-08-28T00:57:30.698Z,28.00
2022-08-28T01:00:00.204Z,28.10
2022-08-28T01:02:29.717Z,28.10
2022-08-28T01:04:59.176Z,28.20
2022-08-28T01:07:28.570Z,28.30
2022-08-28T01:09:59.493Z,28.30
2022-08-28T01:12:31.760Z,28.40
2022-08-28T01:15:03.628Z,28.50
2022-08-28T01:17:35.982Z,28.50
2022-08-28T01:20:13.788Z,28.60
2022-08-28T01:22:49.170Z,28.70
2022-08-28T01:25:23.174Z,28.80
2022-08-28T01:27:52.797Z,28.90
2022-08-28T01:30:25.002Z,28.90
2022-08-28T01:32:56.928Z,29.00
2022-08-28T01:35:34.994Z,29.10
2022-08-28T01:38:04.807Z,29.20
2022-08-28T01:40:41.149Z,29.20
2022-08-28T01:43:19.042Z,29.30
2022-08-28T01:45:55.432Z,29.40
2022-08-28T01:48:27.920Z,29.50
2022-08-28T01:50:57.181Z,29.60
2022-08-28T01:53:32.598Z,29.70
2022-08-28T01:56:05.868Z,29.80
2022-08-28T01:58:38.343Z,29.90
2022-08-28T02:01:15.442Z,30.10
2022-08-28T02:03:44.614Z,30.20
2022-08-28T02:06:14.937Z,30.30
2022-08-28T02:08:44.468Z,30.40
2022-08-28T02:11:13.956Z,30.50
2022-08-28T02:13:43.293Z,30.60
2022-08-28T02:16:13.423Z,30.70
2022-08-28T02:18:42.905Z,30.80
2022-08-28T02:21:13.615Z,31.00
2022-08-28T02:23:45.692Z,31.10
2022-08-28T02:26:16.540Z,31.20
2022-08-28T02:28:45.780Z,31.30
2022-08-28T02:31:14.902Z,31.40
2022-08-28T02:33:46.029Z,31.40
2022-08-28T02:36:16.802Z,31.50
2022-08-28T02:38:47.559Z,31.50
2022-08-28T02:41:16.810Z,31.50
2022-08-28T02:43:45.937Z,31.60
2022-08-28T02:46:15.412Z,31.50
2022-08-28T02:48:44.538Z,31.50
2022-08-28T02:51:15.265Z,31.50
2022-08-28T02:53:44.813Z,31.70
2022-08-28T02:56:14.627Z,31.80
2022-08-28T02:58:44.068Z,31.90
2022-08-28T03:01:15.053Z,32.10
2022-08-28T03:03:44.938Z,32.20
2022-08-28T03:06:15.316Z,32.30
2022-08-28T03:08:45.350Z,32.40
2022-08-28T03:11:14.674Z,32.50
2022-08-28T03:13:43.804Z,32.50
2022-08-28T03:16:13.048Z,32.60
2022-08-28T03:18:42.584Z,32.60
2022-08-28T03:21:12.123Z,32.70
2022-08-28T03:23:41.721Z,32.70
2022-08-28T03:26:15.134Z,32.60
2022-08-28T03:28:47.439Z,32.70
2022-08-28T03:31:20.363Z,32.60
2022-08-28T03:33:50.241Z,32.60
2022-08-28T03:36:23.721Z,32.50
2022-08-28T03:38:54.512Z,32.50
2022-08-28T03:41:27.726Z,32.40
2022-08-28T03:44:01.055Z,32.30
2022-08-28T03:46:35.735Z,32.30
2022-08-28T03:49:06.519Z,32.10
2022-08-28T03:51:36.607Z,32.10
2022-08-28T03:54:06.486Z,32.10
2022-08-28T03:56:35.651Z,32.00
2022-08-28T03:59:06.524Z,32.10
2022-08-28T04:01:36.164Z,32.20
2022-08-28T04:04:05.755Z,32.40
2022-08-28T04:06:36.117Z,32.50
2022-08-28T04:09:06.083Z,32.70
2022-08-28T04:11:45.490Z,32.90
2022-08-28T04:14:14.600Z,33.10
2022-08-28T04:16:44.077Z,33.30
2022-08-28T04:19:13.506Z,33.40
2022-08-28T04:21:42.906Z,33.60
2022-08-28T04:24:14.874Z,33.70
2022-08-28T04:26:45.067Z,33.60
2022-08-28T04:29:14.586Z,33.60
2022-08-28T04:31:44.161Z,33.60
2022-08-28T04:34:13.545Z,33.80
2022-08-28T04:36:42.895Z,33.90
2022-08-28T04:39:12.758Z,34.00
2022-08-28T04:41:42.263Z,34.20
2022-08-28T04:44:11.865Z,34.20
2022-08-28T04:46:41.224Z,34.10
2022-08-28T04:49:10.725Z,34.00
2022-08-28T04:51:42.275Z,33.90
2022-08-28T04:54:12.282Z,33.80
2022-08-28T04:56:42.788Z,33.70
2022-08-28T04:59:12.830Z,33.60
2022-08-28T05:01:43.921Z,33.50
2022-08-28T05:04:14.253Z,33.30
2022-08-28T05:06:47.382Z,33.20
2022-08-28T05:09:19.829Z,33.10
2022-08-28T05:11:50.590Z,33.00
2022-08-28T05:14:21.199Z,32.90
2022-08-28T05:16:54.015Z,32.80
2022-08-28T05:19:24.038Z,32.80
2022-08-28T05:21:54.261Z,32.80
2022-08-28T05:24:23.657Z,33.00
2022-08-28T05:26:53.009Z,33.10
2022-08-28T05:29:23.522Z,33.20
2022-08-28T05:31:55.727Z,33.20
2022-08-28T05:34:25.372Z,33.20
2022-08-28T05:36:54.950Z,33.20
2022-08-28T05:39:24.302Z,33.20
2022-08-28T05:41:54.141Z,33.20
2022-08-28T05:44:23.593Z,33.10
2022-08-28T05:46:53.037Z,33.00
2022-08-28T05:49:22.421Z,32.90
2022-08-28T05:51:53.636Z,32.90
2022-08-28T05:54:23.508Z,32.90
2022-08-28T05:56:52.934Z,32.90
2022-08-28T05:59:23.113Z,32.90
2022-08-28T06:01:52.681Z,33.10
2022-08-28T06:04:27.322Z,33.10
2022-08-28T06:06:57.561Z,33.20
2022-08-28T06:09:30.197Z,33.30
2022-08-28T06:12:02.198Z,33.40
2022-08-28T06:14:32.426Z,33.50
2022-08-28T06:17:02.810Z,33.60
2022-08-28T06:19:35.595Z,33.70
2022-08-28T06:22:07.888Z,33.80
2022-08-28T06:24:37.391Z,34.00
2022-08-28T06:27:06.931Z,34.20
2022-08-28T06:29:36.039Z,34.30
2022-08-28T06:32:08.708Z,34.50
2022-08-28T06:34:38.169Z,34.70
2022-08-28T06:37:07.331Z,34.80
2022-08-28T06:39:36.655Z,34.90
2022-08-28T06:42:06.619Z,34.90
2022-08-28T06:44:35.815Z,35.00
2022-08-28T06:47:04.921Z,35.00
2022-08-28T06:49:35.375Z,35.00
2022-08-28T06:52:04.632Z,34.90
2022-08-28T06:54:33.889Z,34.90
2022-08-28T06:57:03.055Z,34.90
2022-08-28T06:59:32.143Z,35.00
2022-08-28T07:02:01.345Z,35.10
2022-08-28T07:04:30.585Z,35.30
2022-08-28T07:06:59.761Z,35.50
2022-08-28T07:09:28.851Z,35.50
2022-08-28T07:11:58.179Z,35.60
2022-08-28T07:14:27.390Z,35.50
2022-08-28T07:16:58.686Z,35.40
2022-08-28T07:19:28.428Z,35.30
2022-08-28T07:21:57.707Z,35.40
2022-08-28T07:24:28.461Z,35.50
2022-08-28T07:27:00.325Z,35.70
2022-08-28T07:29:29.681Z,35.80
2022-08-28T07:32:00.099Z,35.90
2022-08-28T07:34:29.403Z,35.90
2022-08-28T07:37:04.882Z,35.90
2022-08-28T07:39:34.437Z,35.80
2022-08-28T07:42:04.109Z,35.70
2022-08-28T07:44:51.660Z,35.50
2022-08-28T07:47:21.448Z,35.40
2022-08-28T07:49:51.191Z,35.20
2022-08-28T07:52:20.507Z,35.10
2022-08-28T07:54:50.581Z,35.10
2022-08-28T07:57:22.790Z,35.10
2022-08-28T07:59:53.501Z,35.10
2022-08-28T08:02:23.261Z,35.20
2022-08-28T08:04:52.823Z,35.30
2022-08-28T08:07:23.227Z,35.40
2022-08-28T08:09:52.558Z,35.40
2022-08-28T08:12:21.951Z,35.50
2022-08-28T08:14:51.375Z,35.50
2022-08-28T08:17:21.278Z,35.60
2022-08-28T08:19:50.679Z,35.60
2022-08-28T08:22:20.091Z,35.60
2022-08-28T08:24:49.637Z,35.60
2022-08-28T08:27:19.332Z,35.60
2022-08-28T08:29:50.098Z,35.60
2022-08-28T08:32:19.776Z,35.60
2022-08-28T08:34:50.659Z,35.50
2022-08-28T08:37:19.997Z,35.40
2022-08-28T08:39:49.347Z,35.20
2022-08-28T08:42:33.691Z,35.10
2022-08-28T08:45:05.369Z,34.90
2022-08-28T08:47:37.896Z,34.80
2022-08-28T08:50:18.035Z,34.80
2022-08-28T08:53:10.721Z,34.70
2022-08-28T08:55:52.317Z,34.60
2022-08-28T08:58:30.766Z,34.50
2022-08-28T09:01:27.572Z,34.40
2022-08-28T09:04:02.637Z,34.40
2022-08-28T09:06:42.855Z,34.30
2022-08-28T09:09:22.687Z,34.30
2022-08-28T09:12:02.852Z,34.30
2022-08-28T09:14:47.350Z,34.30
2022-08-28T09:17:20.368Z,34.30
2022-08-28T09:19:50.521Z,34.30
2022-08-28T09:22:19.658Z,34.30
2022-08-28T09:24:49.337Z,34.40
2022-08-28T09:27:32.847Z,34.40
2022-08-28T09:30:09.593Z,34.40
2022-08-28T09:32:47.862Z,34.30
2022-08-28T09:35:26.068Z,34.30
2022-08-28T09:37:55.432Z,34.30
2022-08-28T09:40:26.190Z,34.20
2022-08-28T09:43:34.846Z,34.20
2022-08-28T09:46:26.655Z,34.20
2022-08-28T09:49:10.948Z,34.20
2022-08-28T09:51:41.033Z,34.20
2022-08-28T09:54:45.786Z,34.10
2022-08-28T09:57:14.944Z,34.10
2022-08-28T09:59:44.057Z,34.10
2022-08-28T10:02:55.814Z,34.10
2022-08-28T10:05:43.807Z,34.00
2022-08-28T10:08:43.009Z,34.00
2022-08-28T10:11:33.819Z,33.90
2022-08-28T10:14:40.788Z,33.80
2022-08-28T10:17:30.333Z,33.70
2022-08-28T10:20:12.163Z,33.60
2022-08-28T10:22:55.010Z,33.50
2022-08-28T10:25:36.859Z,33.50
2022-08-28T10:28:42.215Z,33.40
2022-08-28T10:31:24.771Z,33.30
2022-08-28T10:34:25.835Z,33.20
2022-08-28T10:37:18.664Z,33.10
2022-08-28T10:39:56.911Z,33.00
2022-08-28T10:42:40.001Z,32.90
2022-08-28T10:45:18.163Z,32.90
2022-08-28T10:47:53.717Z,32.90
2022-08-28T10:50:38.437Z,32.80
2022-08-28T10:53:23.407Z,32.50
2022-08-28T10:56:01.164Z,32.20
2022-08-28T10:58:31.824Z,31.80
2022-08-28T11:01:13.330Z,31.50
2022-08-28T11:03:51.053Z,31.30
2022-08-28T11:06:38.700Z,31.00
2022-08-28T11:09:28.925Z,30.80
2022-08-28T11:12:02.390Z,30.60
2022-08-28T11:14:44.614Z,30.40
2022-08-28T11:17:28.755Z,30.20
2022-08-28T11:20:16.418Z,30.00
2022-08-28T11:22:51.901Z,29.90
2022-08-28T11:25:26.343Z,29.80
2022-08-28T11:28:26.781Z,29.70
2022-08-28T11:31:19.168Z,29.60
2022-08-28T11:34:00.573Z,29.50
2022-08-28T11:36:30.935Z,29.40
2022-08-28T11:39:06.279Z,29.30
2022-08-28T11:41:41.223Z,29.20
2022-08-28T11:44:16.274Z,29.10
2022-08-28T11:46:45.626Z,29.10
2022-08-28T11:49:36.070Z,29.00
2022-08-28T11:52:27.119Z,29.00
2022-08-28T11:55:25.886Z,28.90
2022-08-28T11:58:16.326Z,28.90
2022-08-28T12:01:08.478Z,28.80
2022-08-28T12:03:56.948Z,28.80
2022-08-28T12:06:53.818Z,28.80
2022-08-28T12:09:40.627Z,28.80
2022-08-28T12:12:47.448Z,28.80
2022-08-28T12:15:32.227Z,28.80
2022-08-28T12:18:13.676Z,28.80
2022-08-28T12:21:02.715Z,28.70
2022-08-28T12:23:45.225Z,28.70
2022-08-28T12:26:26.177Z,28.70
2022-08-28T12:29:01.384Z,28.70
2022-08-28T12:32:12.824Z,28.60
2022-08-28T12:34:51.493Z,28.60
2022-08-28T12:37:51.300Z,28.60
2022-08-28T12:40:39.367Z,28.60
2022-08-28T12:43:15.564Z,28.60
2022-08-28T12:45:55.282Z,28.60
2022-08-28T12:48:34.398Z,28.60
2022-08-28T12:51:15.224Z,28.50
2022-08-28T12:53:50.421Z,28.50
2022-08-28T12:56:22.945Z,28.50
2022-08-28T12:58:53.142Z,28.40
2022-08-28T13:01:35.550Z,28.40
2022-08-28T13:04:19.578Z,28.40
2022-08-28T13:06:48.971Z,28.40
2022-08-28T13:09:21.394Z,28.40
2022-08-28T13:11:52.722Z,28.40
2022-08-28T13:14:44.963Z,28.40
2022-08-28T13:17:16.352Z,28.40
2022-08-28T13:19:45.540Z,28.40
2022-08-28T13:22:50.658Z,28.40
2022-08-28T13:25:26.075Z,28.30
2022-08-28T13:28:04.230Z,28.30
2022-08-28T13:30:35.745Z,28.30
2022-08-28T13:33:19.061Z,28.30
2022-08-28T13:35:49.504Z,28.40
2022-08-28T13:38:21.148Z,28.30
2022-08-28T13:41:03.990Z,28.30
2022-08-28T13:43:46.712Z,28.30
2022-08-28T13:46:15.835Z,28.20
2022-08-28T13:48:44.951Z,28.20
2022-08-28T13:51:20.632Z,28.20
2022-08-28T13:53:50.902Z,28.20
2022-08-28T13:56:21.837Z,28.20
2022-08-28T13:58:57.756Z,28.20
2022-08-28T14:01:48.052Z,28.20
2022-08-28T14:04:17.300Z,28.10
2022-08-28T14:06:46.389Z,28.10
2022-08-28T14:09:17.687Z,28.10
2022-08-28T14:11:48.519Z,28.10
2022-08-28T14:14:17.976Z,28.20
2022-08-28T14:16:47.295Z,28.20
2022-08-28T14:19:16.720Z,28.20
2022-08-28T14:21:46.099Z,28.20
2022-08-28T14:24:15.765Z,28.20
2022-08-28T14:26:46.642Z,28.20
2022-08-28T14:29:18.353Z,28.20
2022-08-28T14:31:48.086Z,28.20
2022-08-28T14:34:23.669Z,28.20
2022-08-28T14:36:56.439Z,28.20
2022-08-28T14:39:28.116Z,28.10
2022-08-28T14:41:57.693Z,28.10
2022-08-28T14:44:27.437Z,28.10
2022-08-28T14:46:57.399Z,28.10
2022-08-28T14:49:27.782Z,28.10
2022-08-28T14:51:58.623Z,28.10
2022-08-28T14:54:28.451Z,28.10
2022-08-28T14:56:58.354Z,28.00
2022-08-28T14:59:29.853Z,28.00
2022-08-28T15:02:01.238Z,28.00
2022-08-28T15:04:38.819Z,28.00
2022-08-28T15:07:11.999Z,28.00
2022-08-28T15:09:43.960Z,28.00
2022-08-28T15:12:13.371Z,28.00
2022-08-28T15:14:47.076Z,27.90
2022-08-28T15:17:33.798Z,27.90
2022-08-28T15:20:04.101Z,27.90
2022-08-28T15:22:33.338Z,27.90
2022-08-28T15:25:02.451Z,27.90
2022-08-28T15:27:31.448Z,27.80
2022-08-28T15:30:00.493Z,27.80
2022-08-28T15:32:29.571Z,27.80
2022-08-28T15:34:58.586Z,27.80
2022-08-28T15:37:27.746Z,27.80
2022-08-28T15:40:19.069Z,27.80
2022-08-28T15:42:48.142Z,27.70
2022-08-28T15:45:17.778Z,27.70
2022-08-28T15:47:46.809Z,27.70
2022-08-28T15:50:20.022Z,27.70
2022-08-28T15:52:49.622Z,27.70
2022-08-28T15:55:22.405Z,27.70
2022-08-28T15:57:51.490Z,27.70
2022-08-28T16:00:20.915Z,27.70
2022-08-28T16:02:50.000Z,27.70
2022-08-28T16:05:19.419Z,27.70
2022-08-28T16:07:48.471Z,27.70
2022-08-28T16:10:18.753Z,27.70
2022-08-28T16:12:48.027Z,27.70
2022-08-28T16:15:24.922Z,27.70
2022-08-28T16:17:53.962Z,27.70
2022-08-28T16:20:22.967Z,27.60
2022-08-28T16:22:52.873Z,27.60
2022-08-28T16:25:21.962Z,27.50
2022-08-28T16:27:51.019Z,27.50
2022-08-28T16:30:21.596Z,27.60
2022-08-28T16:32:54.176Z,27.50
2022-08-28T16:35:23.442Z,27.50
2022-08-28T16:37:53.054Z,27.50
2022-08-28T16:40:22.300Z,27.50
2022-08-28T16:42:52.240Z,27.50
2022-08-28T16:45:21.667Z,27.50
2022-08-28T16:47:51.072Z,27.50
2022-08-28T16:50:21.098Z,27.50
2022-08-28T16:52:50.668Z,27.50
2022-08-28T16:55:19.906Z,27.40
2022-08-28T16:57:49.002Z,27.50
2022-08-28T17:00:18.204Z,27.40
2022-08-28T17:02:48.143Z,27.40
2022-08-28T17:05:20.683Z,27.40
2022-08-28T17:07:50.339Z,27.40
2022-08-28T17:10:22.238Z,27.40
2022-08-28T17:12:51.317Z,27.40
2022-08-28T17:15:21.165Z,27.50
2022-08-28T17:17:50.636Z,27.50
2022-08-28T17:20:38.577Z,27.50
2022-08-28T17:23:08.211Z,27.50
2022-08-28T17:25:37.710Z,27.40
2022-08-28T17:28:07.435Z,27.50
2022-08-28T17:30:37.006Z,27.50
2022-08-28T17:33:08.221Z,27.40
2022-08-28T17:35:41.799Z,27.50
2022-08-28T17:38:11.597Z,27.40
2022-08-28T17:40:41.143Z,27.40
2022-08-28T17:43:10.731Z,27.40
2022-08-28T17:45:40.263Z,27.40
2022-08-28T17:48:09.722Z,27.40
2022-08-28T17:50:39.487Z,27.30
2022-08-28T17:53:08.863Z,27.30
2022-08-28T17:55:38.297Z,27.30
2022-08-28T17:58:07.856Z,27.30
2022-08-28T18:00:37.167Z,27.20
2022-08-28T18:03:06.570Z,27.20
2022-08-28T18:05:39.927Z,27.20
2022-08-28T18:08:11.405Z,27.20
2022-08-28T18:10:40.760Z,27.20
2022-08-28T18:13:10.110Z,27.20
2022-08-28T18:15:39.207Z,27.20
2022-08-28T18:18:16.111Z,27.20
2022-08-28T18:20:45.327Z,27.20
2022-08-28T18:23:14.854Z,27.20
2022-08-28T18:25:50.512Z,27.20
2022-08-28T18:28:24.571Z,27.20
2022-08-28T18:30:55.228Z,27.10
2022-08-28T18:33:26.007Z,27.10
2022-08-28T18:35:55.707Z,27.10
2022-08-28T18:38:29.183Z,27.10
2022-08-28T18:40:59.874Z,27.10
2022-08-28T18:43:35.083Z,27.10
2022-08-28T18:46:05.723Z,27.10
2022-08-28T18:48:35.076Z,27.10
2022-08-28T18:51:06.527Z,27.10
2022-08-28T18:53:36.132Z,27.10
2022-08-28T18:56:06.614Z,27.10
2022-08-28T18:58:36.813Z,27.10
2022-08-28T19:01:06.165Z,27.10
2022-08-28T19:03:35.458Z,27.10
2022-08-28T19:06:04.757Z,27.10
2022-08-28T19:08:33.996Z,27.10
2022-08-28T19:11:09.860Z,27.10
2022-08-28T19:13:39.658Z,27.10
2022-08-28T19:16:09.989Z,27.10
2022-08-28T19:18:39.314Z,27.10
2022-08-28T19:21:20.820Z,27.10
2022-08-28T19:23:56.031Z,27.10
2022-08-28T19:26:27.266Z,27.10
2022-08-28T19:28:57.017Z,27.20
2022-08-28T19:31:28.232Z,27.20
2022-08-28T19:33:57.837Z,27.20
2022-08-28T19:36:28.530Z,27.20
2022-08-28T19:38:58.949Z,27.20
2022-08-28T19:41:29.009Z,27.20
2022-08-28T19:43:58.310Z,27.20
2022-08-28T19:46:27.680Z,27.20
2022-08-28T19:48:57.787Z,27.20
2022-08-28T19:51:27.141Z,27.20
2022-08-28T19:53:58.607Z,27.20
2022-08-28T19:56:33.417Z,27.10
2022-08-28T19:59:05.737Z,27.10
2022-08-28T20:01:38.828Z,27.10
2022-08-28T20:04:09.938Z,27.10
2022-08-28T20:06:39.336Z,27.10
2022-08-28T20:09:12.708Z,27.10
2022-08-28T20:11:45.306Z,27.20
2022-08-28T20:14:15.777Z,27.20
2022-08-28T20:16:46.527Z,27.20
2022-08-28T20:19:16.370Z,27.20
2022-08-28T20:21:46.847Z,27.20
2022-08-28T20:24:21.407Z,27.20
2022-08-28T20:26:52.124Z,27.20
2022-08-28T20:29:21.767Z,27.20
2022-08-28T20:31:51.152Z,27.20
2022-08-28T20:34:21.475Z,27.20
2022-08-28T20:36:51.429Z,27.30
2022-08-28T20:39:21.938Z,27.20
2022-08-28T20:41:52.028Z,27.20
2022-08-28T20:44:22.128Z,27.20
2022-08-28T20:46:53.745Z,27.20
2022-08-28T20:49:24.872Z,27.20
2022-08-28T20:51:54.295Z,27.20
2022-08-28T20:54:32.111Z,27.10
2022-08-28T20:57:04.752Z,27.10
2022-08-28T20:59:39.459Z,27.10
2022-08-28T21:02:22.200Z,27.00
2022-08-28T21:04:51.975Z,27.00
2022-08-28T21:07:23.101Z,26.90
2022-08-28T21:10:06.814Z,26.90
2022-08-28T21:12:38.934Z,26.80
2022-08-28T21:15:11.147Z,26.80
2022-08-28T21:17:40.825Z,26.80
2022-08-28T21:20:14.365Z,26.70
2022-08-28T21:22:44.009Z,26.70
2022-08-28T21:25:13.699Z,26.70
2022-08-28T21:27:44.513Z,26.70
2022-08-28T21:30:15.942Z,26.60
2022-08-28T21:32:45.562Z,26.60
2022-08-28T21:35:15.330Z,26.60
2022-08-28T21:37:44.874Z,26.60
2022-08-28T21:40:16.228Z,26.60
2022-08-28T21:42:45.743Z,26.60
2022-08-28T21:45:14.918Z,26.60
2022-08-28T21:47:44.458Z,26.60
2022-08-28T21:50:14.037Z,26.60
2022-08-28T21:52:43.127Z,26.60
2022-08-28T21:55:16.213Z,26.60
2022-08-28T21:57:45.791Z,26.60
2022-08-28T22:00:19.549Z,26.70
2022-08-28T22:02:49.066Z,26.70
2022-08-28T22:05:18.321Z,26.70
2022-08-28T22:07:47.421Z,26.70
2022-08-28T22:10:16.489Z,26.70
2022-08-28T22:12:45.718Z,26.70
2022-08-28T22:15:14.788Z,26.60
2022-08-28T22:17:43.791Z,26.70
2022-08-28T22:20:13.026Z,26.60
2022-08-28T22:23:00.125Z,26.70
2022-08-28T22:25:29.203Z,26.70
2022-08-28T22:27:58.256Z,26.70
2022-08-28T22:30:27.468Z,26.70
2022-08-28T22:32:56.571Z,26.70
2022-08-28T22:35:26.066Z,26.80
2022-08-28T22:37:55.470Z,26.80
2022-08-28T22:40:25.418Z,26.80
2022-08-28T22:42:54.824Z,26.80
2022-08-28T22:45:23.946Z,26.80
2022-08-28T22:47:55.067Z,26.80
2022-08-28T22:50:24.123Z,26.70
2022-08-28T22:52:53.290Z,26.80
2022-08-28T22:55:23.579Z,26.80
2022-08-28T22:57:52.922Z,26.80
2022-08-28T23:00:26.796Z,26.80
2022-08-28T23:02:56.137Z,26.80
2022-08-28T23:05:28.057Z,26.80
2022-08-28T23:07:57.743Z,26.80
2022-08-28T23:10:48.252Z,26.80
2022-08-28T23:13:16.320Z,26.80
2022-08-28T23:15:45.784Z,26.80
2022-08-28T23:18:15.536Z,26.80
2022-08-28T23:20:45.874Z,26.80
2022-08-28T23:23:15.946Z,26.80
2022-08-28T23:25:45.326Z,26.80
2022-08-28T23:28:15.736Z,26.90
2022-08-28T23:30:48.619Z,26.80
2022-08-28T23:33:24.141Z,26.90
2022-08-28T23:35:54.570Z,26.90
2022-08-28T23:38:23.999Z,27.00
2022-08-28T23:40:55.703Z,26.90
2022-08-28T23:43:26.220Z,27.00
2022-08-28T23:45:58.654Z,27.00
2022-08-28T23:48:28.657Z,27.00
2022-08-28T23:50:58.177Z,27.00
2022-08-28T23:53:28.486Z,27.10
2022-08-28T23:55:59.625Z,27.10
2022-08-28T23:58:31.788Z,27.20
